sensor_id;sensor_type;location;lat;lon;timestamp;temperature;humidity
1165;DHT22;571;50.930;6.926;2023-02-16T03:45:41;4.30;99.90
1165;DHT22;571;50.930;6.926;2023-02-16T03:48:09;4.30;99.90
1165;DHT22;571;50.930;6.926;2023-02-16T03:50:36;4.30;99.90
1165;DHT22;571;50.930;6.926;2023-02-16T03:53:03;4.30;99.90
1165;DHT22;571;50.930;6.926;2023-02-16T03:55:34;4.30;99.90
1165;DHT22;571;50.930;6.926;2023-02-16T03:58:01;4.30;99.90
1165;DHT22;571;50.930;6.926;2023-02-16T04:00:27;4.40;99.90
1165;DHT22;571;50.930;6.926;2023-02-16T04:02:56;4.40;99.90
1165;DHT22;571;50.930;6.926;2023-02-16T04:05:22;4.40;99.90
1165;DHT22;571;50.930;6.926;2023-02-16T04:07:49;4.50;99.70
1165;DHT22;571;50.930;6.926;2023-02-16T04:10:16;4.50;99.60
1165;DHT22;571;50.930;6.926;2023-02-16T04:12:43;4.50;99.30
1165;DHT22;571;50.930;6.926;2023-02-16T04:15:13;4.50;99.20
1165;DHT22;571;50.930;6.926;2023-02-16T04:17:40;4.40;99.80
1165;DHT22;571;50.930;6.926;2023-02-16T04:20:11;4.40;99.80
1165;DHT22;571;50.930;6.926;2023-02-16T04:22:38;4.30;99.90
1165;DHT22;571;50.930;6.926;2023-02-16T04:25:05;4.30;99.90
1165;DHT22;571;50.930;6.926;2023-02-16T04:27:33;4.30;99.90
1165;DHT22;571;50.930;6.926;2023-02-16T04:30:00;4.20;99.90
1165;DHT22;571;50.930;6.926;2023-02-16T04:32:26;4.20;99.90
1165;DHT22;571;50.930;6.926;2023-02-16T04:34:53;4.20;99.90
1165;DHT22;571;50.930;6.926;2023-02-16T04:37:21;4.20;99.90
1165;DHT22;571;50.930;6.926;2023-02-16T04:39:48;4.10;99.90
1165;DHT22;571;50.930;6.926;2023-02-16T04:42:14;4.10;99.90
1165;DHT22;571;50.930;6.926;2023-02-16T04:44:41;4.10;99.90
1165;DHT22;571;50.930;6.926;2023-02-16T04:47:08;4.10;99.90
1165;DHT22;571;50.930;6.926;2023-02-16T04:49:35;4.00;99.90
1165;DHT22;571;50.930;6.926;2023-02-16T04:52:01;4.00;99.90
1165;DHT22;571;50.930;6.926;2023-02-16T04:54:30;4.10;99.90
1165;DHT22;571;50.930;6.926;2023-02-16T04:56:57;4.20;99.90
1165;DHT22;571;50.930;6.926;2023-02-16T04:59:24;4.30;99.90
1165;DHT22;571;50.930;6.926;2023-02-16T05:01:51;4.30;99.70
1165;DHT22;571;50.930;6.926;2023-02-16T05:04:18;4.30;99.90
1165;DHT22;571;50.930;6.926;2023-02-16T05:06:45;4.30;99.90
1165;DHT22;571;50.930;6.926;2023-02-16T05:09:12;4.20;99.90
1165;DHT22;571;50.930;6.926;2023-02-16T05:11:40;4.10;99.90
1165;DHT22;571;50.930;6.926;2023-02-16T05:14:26;4.20;99.90
1165;DHT22;571;50.930;6.926;2023-02-16T05:17:11;4.20;99.90
1165;DHT22;571;50.930;6.926;2023-02-16T05:19:39;4.20;99.70
1165;DHT22;571;50.930;6.926;2023-02-16T05:22:06;4.10;99.90
1165;DHT22;571;50.930;6.926;2023-02-16T05:24:33;4.20;99.70
1165;DHT22;571;50.930;6.926;2023-02-16T05:27:02;4.10;99.50
1165;DHT22;571;50.930;6.926;2023-02-16T05:29:29;4.10;99.90
1165;DHT22;571;50.930;6.926;2023-02-16T05:31:56;4.00;99.90
1165;DHT22;571;50.930;6.926;2023-02-16T05:34:24;4.10;99.90
1165;DHT22;571;50.930;6.926;2023-02-16T05:36:50;4.00;99.90
1165;DHT22;571;50.930;6.926;2023-02-16T05:39:17;4.00;99.90
1165;DHT22;571;50.930;6.926;2023-02-16T05:41:44;4.00;99.90
1165;DHT22;571;50.930;6.926;2023-02-16T05:44:12;3.90;99.90
1165;DHT22;571;50.930;6.926;2023-02-16T05:46:40;3.90;99.90
1165;DHT22;571;50.930;6.926;2023-02-16T05:49:07;3.90;99.90
1165;DHT22;571;50.930;6.926;2023-02-16T05:51:35;3.80;99.90
1165;DHT22;571;50.930;6.926;2023-02-16T05:54:02;3.90;99.90
1165;DHT22;571;50.930;6.926;2023-02-16T05:56:29;3.80;99.90
1165;DHT22;571;50.930;6.926;2023-02-16T05:58:57;3.80;99.90
1165;DHT22;571;50.930;6.926;2023-02-16T06:01:26;3.80;99.90
1165;DHT22;571;50.930;6.926;2023-02-16T06:03:53;3.80;99.90
1165;DHT22;571;50.930;6.926;2023-02-16T06:06:19;3.90;99.90
1165;DHT22;571;50.930;6.926;2023-02-16T06:08:46;4.00;99.90
1165;DHT22;571;50.930;6.926;2023-02-16T06:11:13;4.00;99.70
1165;DHT22;571;50.930;6.926;2023-02-16T06:13:53;4.00;99.60
1165;DHT22;571;50.930;6.926;2023-02-16T06:16:24;4.00;99.60
1165;DHT22;571;50.930;6.926;2023-02-16T06:18:51;4.00;99.90
1165;DHT22;571;50.930;6.926;2023-02-16T06:21:18;4.00;99.70
1165;DHT22;571;50.930;6.926;2023-02-16T06:23:45;4.00;99.70
1165;DHT22;571;50.930;6.926;2023-02-16T06:26:12;4.00;99.70
1165;DHT22;571;50.930;6.926;2023-02-16T06:28:39;4.00;99.70
1165;DHT22;571;50.930;6.926;2023-02-16T06:31:06;4.00;99.50
1165;DHT22;571;50.930;6.926;2023-02-16T06:33:34;4.00;99.90
1165;DHT22;571;50.930;6.926;2023-02-16T06:36:01;4.00;99.90
1165;DHT22;571;50.930;6.926;2023-02-16T06:38:28;4.00;99.90
1165;DHT22;571;50.930;6.926;2023-02-16T06:40:55;4.00;99.90
1165;DHT22;571;50.930;6.926;2023-02-16T06:43:21;4.10;99.70
1165;DHT22;571;50.930;6.926;2023-02-16T06:45:48;4.20;99.60
1165;DHT22;571;50.930;6.926;2023-02-16T06:48:15;4.20;99.70
1165;DHT22;571;50.930;6.926;2023-02-16T06:50:43;4.30;99.20
1165;DHT22;571;50.930;6.926;2023-02-16T06:53:10;4.30;99.30
1165;DHT22;571;50.930;6.926;2023-02-16T06:55:37;4.30;99.70
1165;DHT22;571;50.930;6.926;2023-02-16T06:58:04;4.30;99.20
1165;DHT22;571;50.930;6.926;2023-02-16T07:00:31;4.40;99.30
1165;DHT22;571;50.930;6.926;2023-02-16T07:02:59;4.40;99.50
1165;DHT22;571;50.930;6.926;2023-02-16T07:05:25;4.70;98.60
1165;DHT22;571;50.930;6.926;2023-02-16T07:07:55;4.80;98.50
1165;DHT22;571;50.930;6.926;2023-02-16T07:10:21;4.70;98.50
1165;DHT22;571;50.930;6.926;2023-02-16T07:12:48;4.60;98.60
1165;DHT22;571;50.930;6.926;2023-02-16T07:15:15;4.50;98.90
1165;DHT22;571;50.930;6.926;2023-02-16T07:17:42;4.50;99.40
1165;DHT22;571;50.930;6.926;2023-02-16T07:20:11;4.40;99.70
1165;DHT22;571;50.930;6.926;2023-02-16T07:22:38;4.50;99.60
1165;DHT22;571;50.930;6.926;2023-02-16T07:25:07;4.50;99.40
1165;DHT22;571;50.930;6.926;2023-02-16T07:27:33;4.60;99.50
1165;DHT22;571;50.930;6.926;2023-02-16T07:30:00;4.70;99.40
1165;DHT22;571;50.930;6.926;2023-02-16T07:32:28;4.80;99.10
1165;DHT22;571;50.930;6.926;2023-02-16T07:34:55;4.80;98.80
1165;DHT22;571;50.930;6.926;2023-02-16T07:37:22;4.90;98.50
1165;DHT22;571;50.930;6.926;2023-02-16T07:39:49;5.10;98.10
1165;DHT22;571;50.930;6.926;2023-02-16T07:42:19;5.00;98.20
1165;DHT22;571;50.930;6.926;2023-02-16T07:44:46;5.00;98.10
1165;DHT22;571;50.930;6.926;2023-02-16T07:47:13;5.00;98.20
1165;DHT22;571;50.930;6.926;2023-02-16T07:49:40;5.00;98.40
1165;DHT22;571;50.930;6.926;2023-02-16T07:52:06;5.10;98.20
1165;DHT22;571;50.930;6.926;2023-02-16T07:54:33;5.20;97.80
1165;DHT22;571;50.930;6.926;2023-02-16T07:57:00;5.10;98.10
1165;DHT22;571;50.930;6.926;2023-02-16T07:59:29;5.20;97.90
1165;DHT22;571;50.930;6.926;2023-02-16T08:01:56;5.20;97.90
1165;DHT22;571;50.930;6.926;2023-02-16T08:04:23;5.20;98.00
1165;DHT22;571;50.930;6.926;2023-02-16T08:06:50;5.20;98.30
1165;DHT22;571;50.930;6.926;2023-02-16T08:09:16;5.20;98.50
1165;DHT22;571;50.930;6.926;2023-02-16T08:11:43;5.20;98.50
1165;DHT22;571;50.930;6.926;2023-02-16T08:14:10;5.20;98.50
1165;DHT22;571;50.930;6.926;2023-02-16T08:16:38;5.20;98.90
1165;DHT22;571;50.930;6.926;2023-02-16T08:19:05;5.30;98.70
1165;DHT22;571;50.930;6.926;2023-02-16T08:21:34;5.40;98.40
1165;DHT22;571;50.930;6.926;2023-02-16T08:24:03;5.40;98.40
1165;DHT22;571;50.930;6.926;2023-02-16T08:26:33;5.50;98.00
1165;DHT22;571;50.930;6.926;2023-02-16T08:29:02;5.70;97.50
1165;DHT22;571;50.930;6.926;2023-02-16T08:31:29;5.70;97.40
1165;DHT22;571;50.930;6.926;2023-02-16T08:33:59;5.80;97.10
1165;DHT22;571;50.930;6.926;2023-02-16T08:36:29;5.90;96.90
1165;DHT22;571;50.930;6.926;2023-02-16T08:38:58;5.90;96.90
1165;DHT22;571;50.930;6.926;2023-02-16T08:41:30;5.80;97.30
1165;DHT22;571;50.930;6.926;2023-02-16T08:43:57;5.80;97.40
1165;DHT22;571;50.930;6.926;2023-02-16T08:46:25;5.80;97.30
1165;DHT22;571;50.930;6.926;2023-02-16T08:48:57;5.90;97.30
1165;DHT22;571;50.930;6.926;2023-02-16T08:51:26;5.90;97.50
1165;DHT22;571;50.930;6.926;2023-02-16T08:53:53;6.00;97.40
1165;DHT22;571;50.930;6.926;2023-02-16T08:56:20;6.00;97.80
1165;DHT22;571;50.930;6.926;2023-02-16T08:58:48;5.90;98.00
1165;DHT22;571;50.930;6.926;2023-02-16T09:01:15;5.90;98.00
1165;DHT22;571;50.930;6.926;2023-02-16T09:03:43;5.90;98.00
1165;DHT22;571;50.930;6.926;2023-02-16T09:06:13;6.00;97.80
1165;DHT22;571;50.930;6.926;2023-02-16T09:08:42;6.00;98.00
1165;DHT22;571;50.930;6.926;2023-02-16T09:11:12;6.00;98.20
1165;DHT22;571;50.930;6.926;2023-02-16T09:13:40;6.10;98.10
1165;DHT22;571;50.930;6.926;2023-02-16T09:16:10;6.20;97.60
1165;DHT22;571;50.930;6.926;2023-02-16T09:18:38;6.20;97.60
1165;DHT22;571;50.930;6.926;2023-02-16T09:21:06;6.20;97.70
1165;DHT22;571;50.930;6.926;2023-02-16T09:23:36;6.30;97.80
1165;DHT22;571;50.930;6.926;2023-02-16T09:26:04;6.40;97.60
1165;DHT22;571;50.930;6.926;2023-02-16T09:28:32;6.50;97.50
1165;DHT22;571;50.930;6.926;2023-02-16T09:30:59;6.70;97.30
1165;DHT22;571;50.930;6.926;2023-02-16T09:33:26;6.80;97.30
1165;DHT22;571;50.930;6.926;2023-02-16T09:35:53;6.90;97.10
1165;DHT22;571;50.930;6.926;2023-02-16T09:38:20;7.10;96.90
1165;DHT22;571;50.930;6.926;2023-02-16T09:40:56;7.10;97.40
1165;DHT22;571;50.930;6.926;2023-02-16T09:43:37;7.30;97.00
1165;DHT22;571;50.930;6.926;2023-02-16T09:46:12;7.40;97.00
1165;DHT22;571;50.930;6.926;2023-02-16T09:48:41;7.60;96.60
1165;DHT22;571;50.930;6.926;2023-02-16T09:51:15;7.90;96.00
1165;DHT22;571;50.930;6.926;2023-02-16T09:53:46;8.00;95.90
1165;DHT22;571;50.930;6.926;2023-02-16T09:56:26;8.20;95.60
1165;DHT22;571;50.930;6.926;2023-02-16T09:58:57;8.20;96.00
1165;DHT22;571;50.930;6.926;2023-02-16T10:01:31;8.30;95.90
1165;DHT22;571;50.930;6.926;2023-02-16T10:04:16;8.40;95.60
1165;DHT22;571;50.930;6.926;2023-02-16T10:06:58;8.60;95.20
1165;DHT22;571;50.930;6.926;2023-02-16T10:09:30;8.60;95.30
1165;DHT22;571;50.930;6.926;2023-02-16T10:12:04;8.80;94.80
1165;DHT22;571;50.930;6.926;2023-02-16T10:14:36;8.90;94.70
1165;DHT22;571;50.930;6.926;2023-02-16T10:17:12;9.00;94.40
1165;DHT22;571;50.930;6.926;2023-02-16T10:19:43;8.90;95.20
1165;DHT22;571;50.930;6.926;2023-02-16T10:22:14;8.90;95.00
1165;DHT22;571;50.930;6.926;2023-02-16T10:24:47;9.10;94.60
1165;DHT22;571;50.930;6.926;2023-02-16T10:27:19;9.10;94.80
1165;DHT22;571;50.930;6.926;2023-02-16T10:29:47;9.20;94.50
1165;DHT22;571;50.930;6.926;2023-02-16T10:32:21;9.30;94.40
1165;DHT22;571;50.930;6.926;2023-02-16T10:34:53;9.20;94.70
1165;DHT22;571;50.930;6.926;2023-02-16T10:37:38;9.20;95.10
1165;DHT22;571;50.930;6.926;2023-02-16T10:40:19;9.20;95.30
1165;DHT22;571;50.930;6.926;2023-02-16T10:42:53;9.20;95.30
1165;DHT22;571;50.930;6.926;2023-02-16T10:45:25;9.20;95.20
1165;DHT22;571;50.930;6.926;2023-02-16T10:47:53;9.30;95.10
1165;DHT22;571;50.930;6.926;2023-02-16T10:50:23;9.30;95.10
1165;DHT22;571;50.930;6.926;2023-02-16T10:52:55;9.30;95.20
1165;DHT22;571;50.930;6.926;2023-02-16T10:55:23;9.40;95.60
1165;DHT22;571;50.930;6.926;2023-02-16T10:57:54;9.40;95.60
1165;DHT22;571;50.930;6.926;2023-02-16T11:00:28;9.50;95.40
1165;DHT22;571;50.930;6.926;2023-02-16T11:03:01;9.60;95.60
1165;DHT22;571;50.930;6.926;2023-02-16T11:05:38;9.70;94.90
1165;DHT22;571;50.930;6.926;2023-02-16T11:08:07;9.80;94.80
1165;DHT22;571;50.930;6.926;2023-02-16T11:10:44;9.80;95.00
1165;DHT22;571;50.930;6.926;2023-02-16T11:13:25;9.80;95.10
1165;DHT22;571;50.930;6.926;2023-02-16T11:15:54;9.80;95.30
1165;DHT22;571;50.930;6.926;2023-02-16T11:18:31;9.80;94.90
1165;DHT22;571;50.930;6.926;2023-02-16T11:20:59;10.00;94.10
1165;DHT22;571;50.930;6.926;2023-02-16T11:23:29;9.90;95.10
1165;DHT22;571;50.930;6.926;2023-02-16T11:25:59;9.90;94.90
1165;DHT22;571;50.930;6.926;2023-02-16T11:28:31;10.00;94.20
1165;DHT22;571;50.930;6.926;2023-02-16T11:31:10;10.00;94.60
1165;DHT22;571;50.930;6.926;2023-02-16T11:33:38;10.00;94.80
1165;DHT22;571;50.930;6.926;2023-02-16T11:36:18;10.10;95.00
1165;DHT22;571;50.930;6.926;2023-02-16T11:38:55;10.20;94.50
1165;DHT22;571;50.930;6.926;2023-02-16T11:41:23;10.30;94.20
1165;DHT22;571;50.930;6.926;2023-02-16T11:43:57;10.50;93.70
1165;DHT22;571;50.930;6.926;2023-02-16T11:46:24;10.50;93.90
1165;DHT22;571;50.930;6.926;2023-02-16T11:48:51;10.50;93.80
1165;DHT22;571;50.930;6.926;2023-02-16T11:51:33;10.50;94.20
1165;DHT22;571;50.930;6.926;2023-02-16T11:54:02;10.50;94.60
1165;DHT22;571;50.930;6.926;2023-02-16T11:56:31;10.50;94.70
1165;DHT22;571;50.930;6.926;2023-02-16T11:59:14;10.60;94.60
1165;DHT22;571;50.930;6.926;2023-02-16T12:01:57;10.60;94.80
1165;DHT22;571;50.930;6.926;2023-02-16T12:04:38;10.60;94.90
1165;DHT22;571;50.930;6.926;2023-02-16T12:07:12;10.70;94.40
1165;DHT22;571;50.930;6.926;2023-02-16T12:09:46;10.70;94.10
1165;DHT22;571;50.930;6.926;2023-02-16T12:12:17;10.80;94.00
1165;DHT22;571;50.930;6.926;2023-02-16T12:14:57;10.70;94.50
1165;DHT22;571;50.930;6.926;2023-02-16T12:17:43;10.70;94.80
1165;DHT22;571;50.930;6.926;2023-02-16T12:20:32;10.70;94.90
1165;DHT22;571;50.930;6.926;2023-02-16T12:23:16;10.60;95.40
1165;DHT22;571;50.930;6.926;2023-02-16T12:25:49;10.70;94.90
1165;DHT22;571;50.930;6.926;2023-02-16T12:28:24;10.70;95.00
1165;DHT22;571;50.930;6.926;2023-02-16T12:31:04;10.70;95.20
1165;DHT22;571;50.930;6.926;2023-02-16T12:33:40;10.70;95.10
1165;DHT22;571;50.930;6.926;2023-02-16T12:36:31;10.70;94.80
1165;DHT22;571;50.930;6.926;2023-02-16T12:39:06;10.70;94.90
1165;DHT22;571;50.930;6.926;2023-02-16T12:41:44;10.70;95.20
1165;DHT22;571;50.930;6.926;2023-02-16T12:44:15;10.70;95.00
1165;DHT22;571;50.930;6.926;2023-02-16T12:46:47;10.70;95.00
1165;DHT22;571;50.930;6.926;2023-02-16T12:49:17;10.70;95.20
1165;DHT22;571;50.930;6.926;2023-02-16T12:51:51;10.80;95.10
1165;DHT22;571;50.930;6.926;2023-02-16T12:54:23;10.90;95.30
1165;DHT22;571;50.930;6.926;2023-02-16T12:56:58;10.90;95.30
1165;DHT22;571;50.930;6.926;2023-02-16T12:59:33;10.90;95.40
1165;DHT22;571;50.930;6.926;2023-02-16T13:02:10;10.90;95.80
1165;DHT22;571;50.930;6.926;2023-02-16T13:04:44;11.00;95.50
1165;DHT22;571;50.930;6.926;2023-02-16T13:07:17;11.00;95.20
1165;DHT22;571;50.930;6.926;2023-02-16T13:09:53;10.90;95.80
1165;DHT22;571;50.930;6.926;2023-02-16T13:12:27;10.90;95.50
1165;DHT22;571;50.930;6.926;2023-02-16T13:15:00;10.90;96.10
1165;DHT22;571;50.930;6.926;2023-02-16T13:17:33;10.90;96.00
1165;DHT22;571;50.930;6.926;2023-02-16T13:20:02;11.00;95.80
1165;DHT22;571;50.930;6.926;2023-02-16T13:22:49;11.10;95.90
1165;DHT22;571;50.930;6.926;2023-02-16T13:25:34;11.20;95.40
1165;DHT22;571;50.930;6.926;2023-02-16T13:28:11;11.30;95.40
1165;DHT22;571;50.930;6.926;2023-02-16T13:30:59;11.30;95.30
1165;DHT22;571;50.930;6.926;2023-02-16T13:33:48;11.40;95.70
1165;DHT22;571;50.930;6.926;2023-02-16T13:36:39;11.40;96.20
1165;DHT22;571;50.930;6.926;2023-02-16T13:42:21;11.60;95.90
1165;DHT22;571;50.930;6.926;2023-02-16T13:44:55;11.60;96.50
1165;DHT22;571;50.930;6.926;2023-02-16T13:47:26;11.60;96.70
1165;DHT22;571;50.930;6.926;2023-02-16T13:49:58;11.70;96.30
1165;DHT22;571;50.930;6.926;2023-02-16T13:52:29;11.80;96.00
1165;DHT22;571;50.930;6.926;2023-02-16T13:54:57;11.90;95.90
1165;DHT22;571;50.930;6.926;2023-02-16T13:57:55;12.00;96.60
1165;DHT22;571;50.930;6.926;2023-02-16T14:00:28;12.10;96.80
1165;DHT22;571;50.930;6.926;2023-02-16T14:02:57;12.30;96.70
1165;DHT22;571;50.930;6.926;2023-02-16T14:05:34;12.40;96.80
1165;DHT22;571;50.930;6.926;2023-02-16T14:08:09;12.60;96.90
1165;DHT22;571;50.930;6.926;2023-02-16T14:10:58;12.70;96.80
1165;DHT22;571;50.930;6.926;2023-02-16T14:13:27;12.90;95.20
1165;DHT22;571;50.930;6.926;2023-02-16T14:15:56;13.10;95.20
1165;DHT22;571;50.930;6.926;2023-02-16T14:18:27;13.20;94.50
1165;DHT22;571;50.930;6.926;2023-02-16T14:21:01;13.40;94.30
1165;DHT22;571;50.930;6.926;2023-02-16T14:23:29;13.50;94.10
1165;DHT22;571;50.930;6.926;2023-02-16T14:26:03;13.60;93.60
1165;DHT22;571;50.930;6.926;2023-02-16T14:28:53;13.60;93.50
1165;DHT22;571;50.930;6.926;2023-02-16T14:31:21;13.70;93.60
1165;DHT22;571;50.930;6.926;2023-02-16T14:33:55;13.70;93.80
1165;DHT22;571;50.930;6.926;2023-02-16T14:36:27;13.70;94.00
1165;DHT22;571;50.930;6.926;2023-02-16T14:38:56;13.70;94.50
1165;DHT22;571;50.930;6.926;2023-02-16T14:41:27;13.90;93.80
1165;DHT22;571;50.930;6.926;2023-02-16T14:44:20;13.90;93.80
1165;DHT22;571;50.930;6.926;2023-02-16T14:46:58;14.00;93.50
1165;DHT22;571;50.930;6.926;2023-02-16T14:55:42;13.90;93.40
1165;DHT22;571;50.930;6.926;2023-02-16T14:58:24;13.90;93.40
1165;DHT22;571;50.930;6.926;2023-02-16T15:01:02;13.80;93.50
1165;DHT22;571;50.930;6.926;2023-02-16T15:03:41;13.70;93.50
1165;DHT22;571;50.930;6.926;2023-02-16T15:06:16;13.60;93.40
1165;DHT22;571;50.930;6.926;2023-02-16T15:08:50;13.50;93.80
1165;DHT22;571;50.930;6.926;2023-02-16T15:11:30;13.40;93.90
1165;DHT22;571;50.930;6.926;2023-02-16T15:14:13;13.40;94.10
1165;DHT22;571;50.930;6.926;2023-02-16T15:20:12;13.10;95.40
1165;DHT22;571;50.930;6.926;2023-02-16T15:22:48;13.00;95.20
1165;DHT22;571;50.930;6.926;2023-02-16T15:25:24;12.90;95.40
1165;DHT22;571;50.930;6.926;2023-02-16T15:27:59;12.90;95.40
1165;DHT22;571;50.930;6.926;2023-02-16T15:33:39;12.80;95.70
1165;DHT22;571;50.930;6.926;2023-02-16T15:36:10;12.80;95.90
1165;DHT22;571;50.930;6.926;2023-02-16T15:38:39;12.80;95.80
1165;DHT22;571;50.930;6.926;2023-02-16T15:41:24;12.70;96.20
1165;DHT22;571;50.930;6.926;2023-02-16T15:43:52;12.70;96.20
1165;DHT22;571;50.930;6.926;2023-02-16T15:46:24;12.60;96.20
1165;DHT22;571;50.930;6.926;2023-02-16T15:48:55;12.50;96.40
1165;DHT22;571;50.930;6.926;2023-02-16T15:51:26;12.50;96.30
1165;DHT22;571;50.930;6.926;2023-02-16T15:54:33;12.40;96.70
1165;DHT22;571;50.930;6.926;2023-02-16T15:57:10;12.40;96.80
1165;DHT22;571;50.930;6.926;2023-02-16T16:07:41;12.40;96.50
1165;DHT22;571;50.930;6.926;2023-02-16T16:10:14;12.40;96.20
1165;DHT22;571;50.930;6.926;2023-02-16T16:12:43;12.30;96.40
1165;DHT22;571;50.930;6.926;2023-02-16T16:15:14;12.40;96.30
1165;DHT22;571;50.930;6.926;2023-02-16T16:17:43;12.30;96.60
1165;DHT22;571;50.930;6.926;2023-02-16T16:20:28;12.20;96.80
1165;DHT22;571;50.930;6.926;2023-02-16T16:22:57;12.10;96.70
1165;DHT22;571;50.930;6.926;2023-02-16T16:25:30;12.20;96.40
1165;DHT22;571;50.930;6.926;2023-02-16T16:28:05;12.20;96.50
1165;DHT22;571;50.930;6.926;2023-02-16T16:30:34;12.10;96.50
1165;DHT22;571;50.930;6.926;2023-02-16T16:33:03;12.10;96.50
1165;DHT22;571;50.930;6.926;2023-02-16T16:35:37;12.10;96.10
1165;DHT22;571;50.930;6.926;2023-02-16T16:38:25;12.10;96.20
1165;DHT22;571;50.930;6.926;2023-02-16T16:40:56;12.10;96.00
1165;DHT22;571;50.930;6.926;2023-02-16T16:43:26;12.10;95.90
1165;DHT22;571;50.930;6.926;2023-02-16T16:45:56;12.20;95.60
1165;DHT22;571;50.930;6.926;2023-02-16T16:48:35;12.20;94.80
1165;DHT22;571;50.930;6.926;2023-02-16T16:51:11;12.30;94.60
1165;DHT22;571;50.930;6.926;2023-02-16T16:53:51;12.40;94.50
1165;DHT22;571;50.930;6.926;2023-02-16T16:56:19;12.30;94.60
1165;DHT22;571;50.930;6.926;2023-02-16T16:58:52;12.40;94.50
1165;DHT22;571;50.930;6.926;2023-02-16T17:01:21;12.30;94.80
1165;DHT22;571;50.930;6.926;2023-02-16T17:03:49;12.20;94.90
1165;DHT22;571;50.930;6.926;2023-02-16T17:06:16;12.20;94.90
1165;DHT22;571;50.930;6.926;2023-02-16T17:08:43;12.20;95.00
1165;DHT22;571;50.930;6.926;2023-02-16T17:11:14;12.20;94.90
1165;DHT22;571;50.930;6.926;2023-02-16T17:13:44;12.20;95.00
1165;DHT22;571;50.930;6.926;2023-02-16T17:16:15;12.20;94.90
1165;DHT22;571;50.930;6.926;2023-02-16T17:18:44;12.20;94.90
1165;DHT22;571;50.930;6.926;2023-02-16T17:21:12;12.30;94.30
1165;DHT22;571;50.930;6.926;2023-02-16T17:23:39;12.30;94.40
1165;DHT22;571;50.930;6.926;2023-02-16T17:26:06;12.10;94.60
1165;DHT22;571;50.930;6.926;2023-02-16T17:28:33;12.20;94.60
1165;DHT22;571;50.930;6.926;2023-02-16T17:31:01;12.20;94.40
1165;DHT22;571;50.930;6.926;2023-02-16T17:33:29;12.30;94.20
1165;DHT22;571;50.930;6.926;2023-02-16T17:35:56;12.30;94.40
1165;DHT22;571;50.930;6.926;2023-02-16T17:38:23;12.20;94.50
1165;DHT22;571;50.930;6.926;2023-02-16T17:43:41;12.10;94.60
1165;DHT22;571;50.930;6.926;2023-02-16T17:46:07;12.10;94.60
1165;DHT22;571;50.930;6.926;2023-02-16T17:48:35;12.10;94.50
1165;DHT22;571;50.930;6.926;2023-02-16T17:51:02;12.10;94.50
1165;DHT22;571;50.930;6.926;2023-02-16T17:53:29;12.10;94.60
1165;DHT22;571;50.930;6.926;2023-02-16T17:55:56;12.20;94.40
1165;DHT22;571;50.930;6.926;2023-02-16T17:58:24;12.20;94.30
1165;DHT22;571;50.930;6.926;2023-02-16T18:00:51;12.10;94.40
1165;DHT22;571;50.930;6.926;2023-02-16T18:03:18;12.00;94.70
1165;DHT22;571;50.930;6.926;2023-02-16T18:05:48;12.00;94.60
1165;DHT22;571;50.930;6.926;2023-02-16T18:08:14;12.00;94.50
1165;DHT22;571;50.930;6.926;2023-02-16T18:10:43;11.90;94.70
1165;DHT22;571;50.930;6.926;2023-02-16T18:13:11;11.80;94.80
1165;DHT22;571;50.930;6.926;2023-02-16T18:15:39;11.90;94.60
1165;DHT22;571;50.930;6.926;2023-02-16T18:18:07;12.00;94.40
1165;DHT22;571;50.930;6.926;2023-02-16T18:20:34;11.90;94.60
1165;DHT22;571;50.930;6.926;2023-02-16T18:23:02;11.90;94.70
1165;DHT22;571;50.930;6.926;2023-02-16T18:25:30;11.90;94.70
1165;DHT22;571;50.930;6.926;2023-02-16T18:27:57;11.80;95.00
1165;DHT22;571;50.930;6.926;2023-02-16T18:30:24;11.80;94.90
1165;DHT22;571;50.930;6.926;2023-02-16T18:32:51;11.80;95.00
1165;DHT22;571;50.930;6.926;2023-02-16T18:35:19;11.90;94.90
1165;DHT22;571;50.930;6.926;2023-02-16T18:37:46;11.90;94.80
1165;DHT22;571;50.930;6.926;2023-02-16T18:40:16;12.00;95.10
1165;DHT22;571;50.930;6.926;2023-02-16T18:42:44;11.90;95.50
1165;DHT22;571;50.930;6.926;2023-02-16T18:45:10;11.70;95.80
1165;DHT22;571;50.930;6.926;2023-02-16T18:47:37;11.60;96.20
1165;DHT22;571;50.930;6.926;2023-02-16T18:50:05;11.70;95.90
1165;DHT22;571;50.930;6.926;2023-02-16T18:52:32;11.70;95.90
1165;DHT22;571;50.930;6.926;2023-02-16T18:54:59;11.70;95.90
1165;DHT22;571;50.930;6.926;2023-02-16T18:57:27;11.60;96.50
1165;DHT22;571;50.930;6.926;2023-02-16T18:59:54;11.60;96.50
1165;DHT22;571;50.930;6.926;2023-02-16T19:02:21;11.50;96.70
1165;DHT22;571;50.930;6.926;2023-02-16T19:04:47;11.50;96.70
1165;DHT22;571;50.930;6.926;2023-02-16T19:07:14;11.50;96.80
1165;DHT22;571;50.930;6.926;2023-02-16T19:09:41;11.50;96.70
1165;DHT22;571;50.930;6.926;2023-02-16T19:12:07;11.60;96.50
1165;DHT22;571;50.930;6.926;2023-02-16T19:14:36;11.50;96.50
1165;DHT22;571;50.930;6.926;2023-02-16T19:17:02;11.50;96.60
1165;DHT22;571;50.930;6.926;2023-02-16T19:19:30;11.60;96.30
1165;DHT22;571;50.930;6.926;2023-02-16T19:21:57;11.60;96.20
1165;DHT22;571;50.930;6.926;2023-02-16T19:24:24;11.60;96.40
1165;DHT22;571;50.930;6.926;2023-02-16T19:26:51;11.50;96.50
1165;DHT22;571;50.930;6.926;2023-02-16T19:29:18;11.50;96.60
1165;DHT22;571;50.930;6.926;2023-02-16T19:31:46;11.60;96.30
1165;DHT22;571;50.930;6.926;2023-02-16T19:34:13;11.50;96.70
1165;DHT22;571;50.930;6.926;2023-02-16T19:36:39;11.50;96.50
1165;DHT22;571;50.930;6.926;2023-02-16T19:39:06;11.60;96.50
1165;DHT22;571;50.930;6.926;2023-02-16T19:41:36;11.70;95.90
1165;DHT22;571;50.930;6.926;2023-02-16T19:44:03;11.80;95.60
1165;DHT22;571;50.930;6.926;2023-02-16T19:46:30;11.70;95.90
1165;DHT22;571;50.930;6.926;2023-02-16T19:49:00;11.70;95.90
1165;DHT22;571;50.930;6.926;2023-02-16T19:51:28;11.70;96.20
1165;DHT22;571;50.930;6.926;2023-02-16T19:53:55;11.70;96.10
1165;DHT22;571;50.930;6.926;2023-02-16T19:56:23;11.70;96.00
1165;DHT22;571;50.930;6.926;2023-02-16T19:58:51;11.70;96.40
1165;DHT22;571;50.930;6.926;2023-02-16T20:01:20;11.60;96.60
1165;DHT22;571;50.930;6.926;2023-02-16T20:03:48;11.50;97.10
1165;DHT22;571;50.930;6.926;2023-02-16T20:06:24;11.40;97.40
1165;DHT22;571;50.930;6.926;2023-02-16T20:08:57;11.40;97.20
1165;DHT22;571;50.930;6.926;2023-02-16T20:11:34;11.40;97.00
1165;DHT22;571;50.930;6.926;2023-02-16T20:14:03;11.40;97.30
1165;DHT22;571;50.930;6.926;2023-02-16T20:16:31;11.30;97.40
1165;DHT22;571;50.930;6.926;2023-02-16T20:18:58;11.30;97.50
1165;DHT22;571;50.930;6.926;2023-02-16T20:21:37;11.30;97.60
1165;DHT22;571;50.930;6.926;2023-02-16T20:24:13;11.30;97.90
1165;DHT22;571;50.930;6.926;2023-02-16T20:26:45;11.20;97.80
1165;DHT22;571;50.930;6.926;2023-02-16T20:29:21;11.20;97.70
1165;DHT22;571;50.930;6.926;2023-02-16T20:31:50;11.30;97.50
1165;DHT22;571;50.930;6.926;2023-02-16T20:34:26;11.40;97.30
1165;DHT22;571;50.930;6.926;2023-02-16T20:37:16;11.40;97.20
1165;DHT22;571;50.930;6.926;2023-02-16T20:42:46;11.50;97.10
1165;DHT22;571;50.930;6.926;2023-02-16T20:45:16;11.50;97.00
1165;DHT22;571;50.930;6.926;2023-02-16T20:47:46;11.60;96.90
1165;DHT22;571;50.930;6.926;2023-02-16T20:50:14;11.50;97.10
1165;DHT22;571;50.930;6.926;2023-02-16T20:52:44;11.50;97.10
1165;DHT22;571;50.930;6.926;2023-02-16T20:55:13;11.40;97.60
1165;DHT22;571;50.930;6.926;2023-02-16T20:57:47;11.30;97.80
1165;DHT22;571;50.930;6.926;2023-02-16T21:00:34;11.30;98.00
1165;DHT22;571;50.930;6.926;2023-02-16T21:03:19;11.30;98.30